Time;durP1;ratioP1;P1;durP2;ratioP2;P2;SDS_P1;SDS_P2;PMS_P1;PMS_P2;Temp;Humidity;BMP_temperature;BMP_pressure;BME280_temperature;BME280_humidity;BME280_pressure;Samples;Min_cycle;Max_cycle;Signal;HPM_P1;HPM_P2
2021/05/15 00:02:12;;;;;;;4.82;3.95;;;10.40;95.40;;;;;;5063688;28;20361;-68
2021/05/15 00:04:37;;;;;;;7.80;5.30;;;10.30;95.40;;;;;;5066198;28;20028;-68
2021/05/15 00:07:03;;;;;;;;;;;10.20;95.60;;;;;;5066013;28;20035;-69
2021/05/15 00:09:29;;;;;;;7.18;4.53;;;10.20;95.70;;;;;;5064678;28;19913;-68
2021/05/15 00:11:54;;;;;;;;;;;10.00;95.80;;;;;;5066660;28;20024;-68
2021/05/15 00:14:20;;;;;;;7.10;4.18;;;10.00;96.00;;;;;;5066283;28;19912;-68
2021/05/15 00:16:46;;;;;;;;;;;9.90;96.10;;;;;;5066099;28;20136;-68
2021/05/15 00:19:11;;;;;;;4.85;3.58;;;9.80;96.10;;;;;;5066134;28;19917;-68
2021/05/15 00:21:37;;;;;;;;;;;9.70;96.30;;;;;;5065899;28;20056;-68
2021/05/15 00:24:03;;;;;;;6.95;3.60;;;9.70;96.30;;;;;;5066636;28;20193;-70
2021/05/15 00:26:29;;;;;;;5.47;4.15;;;9.70;96.30;;;;;;5065942;28;20028;-68
2021/05/15 00:28:54;;;;;;;;;;;9.60;96.30;;;;;;5066340;28;20024;-67
2021/05/15 00:31:20;;;;;;;8.30;4.90;;;9.60;96.40;;;;;;5065905;28;20024;-68
2021/05/15 00:33:46;;;;;;;8.23;5.22;;;9.50;96.40;;;;;;5066426;28;20297;-68
2021/05/15 00:36:12;;;;;;;;;;;9.50;96.40;;;;;;5066103;28;20492;-68
2021/05/15 00:38:38;;;;;;;5.35;3.80;;;9.50;96.50;;;;;;5065804;28;19922;-68
2021/05/15 00:41:03;;;;;;;;;;;9.40;96.40;;;;;;5064536;28;20028;-68
2021/05/15 00:43:29;;;;;;;5.65;4.30;;;9.40;96.40;;;;;;5066169;28;19931;-68
2021/05/15 00:45:55;;;;;;;6.25;4.88;;;9.30;96.30;;;;;;5065442;28;20068;-66
2021/05/15 00:48:21;;;;;;;6.40;4.63;;;9.30;96.40;;;;;;5064162;28;20059;-66
2021/05/15 00:50:47;;;;;;;;;;;9.30;96.60;;;;;;5065775;28;20024;-66
2021/05/15 00:53:12;;;;;;;9.25;5.38;;;9.20;96.60;;;;;;5065515;28;20380;-65
2021/05/15 00:55:38;;;;;;;;;;;9.20;96.40;;;;;;5066362;28;20032;-66
2021/05/15 00:58:04;;;;;;;8.63;5.53;;;9.10;96.50;;;;;;5065738;28;19908;-66
2021/05/15 01:00:31;;;;;;;8.52;5.85;;;9.10;96.50;;;;;;5065348;28;20028;-66
2021/05/15 01:02:57;;;;;;;7.28;5.32;;;9.10;96.50;;;;;;5065398;28;20727;-68
2021/05/15 01:05:22;;;;;;;;;;;9.00;96.50;;;;;;5065862;28;20548;-67
2021/05/15 01:07:49;;;;;;;5.88;4.85;;;9.00;96.50;;;;;;5065671;28;19908;-66
2021/05/15 01:10:16;;;;;;;7.75;4.93;;;9.00;96.60;;;;;;5065632;28;20508;-65
2021/05/15 01:12:56;;;;;;;9.48;6.13;;;8.90;96.60;;;;;;5065540;28;20031;-65
2021/05/15 01:15:25;;;;;;;11.25;5.88;;;8.90;96.90;;;;;;5069467;28;20043;-66
2021/05/15 01:17:52;;;;;;;9.57;5.57;;;8.80;97.00;;;;;;5067850;28;20077;-65
2021/05/15 01:20:19;;;;;;;6.38;4.63;;;8.80;97.10;;;;;;5068445;28;20124;-65
2021/05/15 01:22:46;;;;;;;6.03;4.93;;;8.70;97.20;;;;;;5068845;28;20035;-65
2021/05/15 01:25:12;;;;;;;10.52;5.93;;;8.70;97.10;;;;;;5068865;28;20449;-66
2021/05/15 01:27:38;;;;;;;8.27;5.15;;;8.70;97.20;;;;;;5069416;28;20385;-66
2021/05/15 01:30:05;;;;;;;;;;;8.70;97.00;;;;;;5069612;28;20039;-66
2021/05/15 01:32:30;;;;;;;8.00;5.85;;;8.70;97.10;;;;;;5068686;28;19923;-66
2021/05/15 01:34:56;;;;;;;;;;;8.60;97.20;;;;;;5067688;28;20295;-65
2021/05/15 01:37:21;;;;;;;8.65;5.22;;;8.60;97.00;;;;;;5069036;28;19908;-65
2021/05/15 01:39:47;;;;;;;;;;;8.60;96.80;;;;;;5069070;28;20051;-66
2021/05/15 01:42:12;;;;;;;9.60;5.85;;;8.60;97.00;;;;;;5068866;28;19909;-66
2021/05/15 01:44:38;;;;;;;;;;;8.60;97.20;;;;;;5069089;28;20296;-65
2021/05/15 01:47:03;;;;;;;6.90;5.00;;;8.60;97.40;;;;;;5068864;28;20554;-66
2021/05/15 01:49:29;;;;;;;;;;;8.60;97.50;;;;;;5068786;28;20043;-66
2021/05/15 01:51:55;;;;;;;5.72;4.13;;;8.60;97.60;;;;;;5068267;28;20373;-66
2021/05/15 01:54:20;;;;;;;;;;;8.50;97.50;;;;;;5069205;28;20056;-66
2021/05/15 01:56:46;;;;;;;5.88;3.90;;;8.50;97.50;;;;;;5067110;28;20449;-66
2021/05/15 01:59:11;;;;;;;;;;;8.50;97.30;;;;;;5069032;28;20082;-66
2021/05/15 02:01:37;;;;;;;5.30;3.88;;;8.40;97.10;;;;;;5068358;28;20279;-65
2021/05/15 02:04:02;;;;;;;;;;;8.40;97.20;;;;;;5068441;28;20028;-67
2021/05/15 02:06:28;;;;;;;6.45;3.25;;;8.40;97.20;;;;;;5066821;28;19908;-66
2021/05/15 02:08:54;;;;;;;;;;;8.30;97.20;;;;;;5067367;28;20035;-66
2021/05/15 02:11:19;;;;;;;6.47;4.20;;;8.30;97.30;;;;;;5068410;28;19909;-65
2021/05/15 02:13:46;;;;;;;;;;;8.40;97.40;;;;;;5068401;28;20033;-66
2021/05/15 02:16:11;;;;;;;3.90;2.95;;;8.30;97.30;;;;;;5068160;28;19911;-68
2021/05/15 02:18:38;;;;;;;;;;;8.30;97.30;;;;;;5066600;28;20412;-65
2021/05/15 02:21:04;;;;;;;5.37;3.40;;;8.30;97.20;;;;;;5068200;28;20368;-66
2021/05/15 02:23:30;;;;;;;4.63;3.42;;;8.30;97.20;;;;;;5068155;28;20263;-66
2021/05/15 02:25:55;;;;;;;;;;;8.30;97.20;;;;;;5065855;28;20546;-66
2021/05/15 02:28:21;;;;;;;7.53;3.40;;;8.30;97.20;;;;;;5068014;28;19909;-66
2021/05/15 02:30:49;;;;;;;;;;;8.30;97.20;;;;;;5068252;28;20028;-66
2021/05/15 02:33:15;;;;;;;8.95;4.85;;;8.30;97.20;;;;;;5067913;28;19911;-66
2021/05/15 02:35:40;;;;;;;;;;;8.20;97.10;;;;;;5067613;28;20447;-65
2021/05/15 02:38:10;;;;;;;6.75;3.47;;;8.20;97.00;;;;;;5067825;28;19908;-66
2021/05/15 02:40:37;;;;;;;6.82;2.60;;;8.20;96.90;;;;;;5067865;28;20097;-65
2021/05/15 02:43:03;;;;;;;6.22;2.42;;;8.20;96.80;;;;;;5067321;28;20078;-66
2021/05/15 02:45:29;;;;;;;;;;;8.10;96.80;;;;;;5068130;28;20061;-66
2021/05/15 02:47:54;;;;;;;12.95;3.28;;;8.10;96.70;;;;;;5067736;28;19908;-66
2021/05/15 02:50:21;;;;;;;;;;;8.10;96.80;;;;;;5067203;28;20277;-66
2021/05/15 02:52:47;;;;;;;13.38;2.05;;;8.00;96.90;;;;;;5066307;28;19908;-66
2021/05/15 02:55:30;;;;;;;;;;;8.00;97.20;;;;;;5066492;28;20077;-65
2021/05/15 02:57:56;;;;;;;5.35;2.53;;;8.10;96.90;;;;;;5067439;28;20427;-68
2021/05/15 03:00:26;;;;;;;;;;;8.10;96.80;;;;;;5067392;28;20025;-67
2021/05/15 03:02:51;;;;;;;6.93;2.00;;;8.10;96.80;;;;;;5067394;28;19909;-69
2021/05/15 03:05:19;;;;;;;;;;;8.20;97.00;;;;;;5067104;28;20378;-68
2021/05/15 03:07:45;;;;;;;3.33;2.08;;;8.20;97.10;;;;;;5067203;28;19908;-68
2021/05/15 03:10:11;;;;;;;;;;;8.20;97.00;;;;;;5067343;28;20840;-66
2021/05/15 03:12:37;;;;;;;11.52;2.80;;;8.20;96.90;;;;;;5066820;28;19995;-69
2021/05/15 03:15:07;;;;;;;9.00;3.45;;;8.20;96.90;;;;;;5066937;28;20036;-68
2021/05/15 03:17:33;;;;;;;9.68;3.08;;;8.10;96.70;;;;;;5065800;28;20107;-67
2021/05/15 03:19:59;;;;;;;3.75;1.65;;;8.10;96.70;;;;;;5066238;28;20455;-68
2021/05/15 03:22:25;;;;;;;;;;;8.10;96.70;;;;;;5067310;28;20484;-68
2021/05/15 03:24:50;;;;;;;10.30;3.85;;;8.10;96.70;;;;;;5066910;28;19935;-66
2021/05/15 03:27:16;;;;;;;;;;;8.10;96.70;;;;;;5067382;28;20029;-65
2021/05/15 03:29:42;;;;;;;3.97;1.85;;;8.10;96.50;;;;;;5066820;28;20380;-68
2021/05/15 03:32:11;;;;;;;4.00;1.90;;;8.20;96.40;;;;;;5067240;28;20043;-68
2021/05/15 03:34:37;;;;;;;5.88;2.15;;;8.10;96.60;;;;;;5065891;28;20527;-69
2021/05/15 03:37:03;;;;;;;5.05;2.20;;;8.20;96.80;;;;;;5065250;28;20390;-66
2021/05/15 03:39:28;;;;;;;;;;;8.20;97.00;;;;;;5067122;28;20044;-65
2021/05/15 03:41:54;;;;;;;5.78;1.90;;;8.30;97.10;;;;;;5066240;28;19909;-66
2021/05/15 03:44:20;;;;;;;;;;;8.30;97.00;;;;;;5066724;28;20070;-66
2021/05/15 03:46:45;;;;;;;9.40;3.28;;;8.30;96.80;;;;;;5066654;28;19927;-66
2021/05/15 03:49:11;;;;;;;;;;;8.40;96.90;;;;;;5066036;28;20049;-65
2021/05/15 03:51:37;;;;;;;10.82;1.90;;;8.50;96.90;;;;;;5066887;28;19908;-65
2021/05/15 03:54:02;;;;;;;;;;;8.60;96.80;;;;;;5066896;28;20032;-66
2021/05/15 03:56:28;;;;;;;2.85;1.65;;;8.70;96.80;;;;;;5065956;28;19995;-66
2021/05/15 03:58:54;;;;;;;;;;;8.90;96.80;;;;;;5065323;28;20044;-66
2021/05/15 04:01:21;;;;;;;9.45;1.90;;;9.10;96.80;;;;;;5066065;28;19904;-69
2021/05/15 04:03:47;;;;;;;2.85;1.75;;;9.50;95.70;;;;;;5064302;28;20464;-68
2021/05/15 04:06:12;;;;;;;;;;;9.90;95.10;;;;;;5066847;28;20036;-69
2021/05/15 04:08:38;;;;;;;3.88;1.58;;;10.20;94.10;;;;;;5066105;28;20260;-68
2021/05/15 04:11:04;;;;;;;;;;;10.40;93.60;;;;;;5066428;28;20116;-68
2021/05/15 04:13:42;;;;;;;8.15;1.90;;;10.50;93.20;;;;;;5066008;28;19915;-68
2021/05/15 04:18:36;;;;;;;6.07;1.20;;;10.90;92.90;;;;;;5065208;28;20044;-68
2021/05/15 04:21:02;;;;;;;;;;;11.50;91.70;;;;;;5066627;28;20167;-68
2021/05/15 04:23:27;;;;;;;4.47;1.15;;;11.80;91.00;;;;;;5064979;28;19936;-68
2021/05/15 04:25:53;;;;;;;;;;;11.90;90.80;;;;;;5066269;28;20036;-68
2021/05/15 04:28:19;;;;;;;11.45;1.20;;;12.10;90.40;;;;;;5066340;28;19977;-68
2021/05/15 04:30:45;;;;;;;;;;;12.20;90.10;;;;;;5065097;28;20021;-68
2021/05/15 04:33:11;;;;;;;2.90;0.68;;;12.30;89.30;;;;;;5065306;28;19982;-68
2021/05/15 04:35:36;;;;;;;;;;;12.40;89.60;;;;;;5066573;28;20540;-69
2021/05/15 04:38:04;;;;;;;5.22;0.70;;;12.50;89.70;;;;;;5065921;28;19916;-68
2021/05/15 04:40:30;;;;;;;2.13;0.80;;;12.70;90.00;;;;;;5065734;28;20028;-68
2021/05/15 04:42:57;;;;;;;11.15;0.77;;;12.80;89.80;;;;;;5066234;28;20405;-69
2021/05/15 04:45:23;;;;;;;3.15;1.20;;;12.90;89.60;;;;;;5065062;28;20052;-69
2021/05/15 04:47:49;;;;;;;8.75;1.17;;;13.10;89.30;;;;;;5065617;28;20162;-68
2021/05/15 04:50:15;;;;;;;3.40;1.05;;;13.20;89.00;;;;;;5069913;28;20077;-68
2021/05/15 04:52:40;;;;;;;2.60;0.75;;;13.30;86.90;;;;;;5069874;28;20028;-69
2021/05/15 04:55:07;;;;;;;;;;;13.40;87.40;;;;;;5070250;28;20028;-69
2021/05/15 04:57:33;;;;;;;4.05;1.13;;;13.50;87.10;;;;;;5069390;28;19905;-69
2021/05/15 04:59:59;;;;;;;3.75;1.35;;;13.70;86.90;;;;;;5069717;28;20528;-69
2021/05/15 05:02:25;;;;;;;12.80;2.28;;;13.80;85.80;;;;;;5067807;28;20039;-68
2021/05/15 05:04:50;;;;;;;;;;;14.00;85.20;;;;;;5069934;28;20036;-69
2021/05/15 05:07:16;;;;;;;8.55;1.90;;;14.20;84.00;;;;;;5069709;28;20178;-68
2021/05/15 05:09:42;;;;;;;;;;;14.40;83.80;;;;;;5069935;28;20021;-69
2021/05/15 05:12:08;;;;;;;2.00;0.70;;;14.60;83.40;;;;;;5068614;28;19930;-69
2021/05/15 05:14:35;;;;;;;3.65;0.75;;;14.70;82.90;;;;;;5068922;28;20044;-68
2021/05/15 05:17:00;;;;;;;3.42;1.25;;;14.90;81.50;;;;;;5069301;28;20443;-68
2021/05/15 05:19:27;;;;;;;4.22;1.08;;;15.10;80.20;;;;;;5069206;28;20137;-69
2021/05/15 05:21:55;;;;;;;6.07;1.17;;;15.40;78.30;;;;;;5067596;28;20024;-68
2021/05/15 05:24:21;;;;;;;11.50;1.42;;;15.50;77.80;;;;;;5069221;28;20033;-69
2021/05/15 05:26:47;;;;;;;1.75;0.88;;;15.80;77.10;;;;;;5068767;28;20030;-68
2021/05/15 05:29:12;;;;;;;2.28;0.90;;;16.20;75.20;;;;;;5068802;28;20029;-70
2021/05/15 05:31:40;;;;;;;7.43;0.60;;;16.40;74.20;;;;;;5069013;28;20024;-69
2021/05/15 05:34:08;;;;;;;7.05;0.80;;;16.50;73.60;;;;;;5069002;28;20036;-68
2021/05/15 05:36:35;;;;;;;5.00;0.80;;;16.60;72.90;;;;;;5068481;28;20040;-68
2021/05/15 05:39:01;;;;;;;2.15;0.80;;;16.60;72.80;;;;;;5068576;28;20090;-69
2021/05/15 05:41:27;;;;;;;3.10;0.80;;;17.00;72.60;;;;;;5069075;28;20021;-69
2021/05/15 05:43:54;;;;;;;6.43;1.05;;;17.40;68.80;;;;;;5068634;28;20042;-66
2021/05/15 05:46:20;;;;;;;15.05;0.90;;;17.50;68.30;;;;;;5053608;28;20645;-66
2021/05/15 05:48:49;;;;;;;5.65;0.80;;;17.80;66.40;;;;;;5068112;28;20024;-66
2021/05/15 05:51:15;;;;;;;2.70;0.50;;;18.30;64.90;;;;;;5068797;28;20029;-67
2021/05/15 05:53:40;;;;;;;4.55;0.80;;;18.90;64.00;;;;;;5068445;28;20035;-67
2021/05/15 05:56:06;;;;;;;4.38;0.80;;;20.10;59.90;;;;;;5068801;28;20025;-67
2021/05/15 05:58:32;;;;;;;3.78;1.00;;;21.10;54.80;;;;;;5068216;28;20032;-66
2021/05/15 06:00:58;;;;;;;6.57;0.80;;;21.70;50.20;;;;;;5066876;28;20107;-67
2021/05/15 06:03:24;;;;;;;4.47;0.80;;;21.80;50.90;;;;;;5068209;28;20411;-67
2021/05/15 06:05:49;;;;;;;4.28;0.70;;;22.00;48.60;;;;;;5068476;28;20029;-67
2021/05/15 06:08:15;;;;;;;6.47;0.90;;;22.00;51.70;;;;;;5068637;28;20029;-66
2021/05/15 06:10:41;;;;;;;2.40;1.00;;;22.90;50.50;;;;;;5067893;28;20119;-67
2021/05/15 06:13:08;;;;;;;2.63;0.90;;;23.80;47.60;;;;;;5068228;28;20027;-68
2021/05/15 06:15:34;;;;;;;5.78;0.95;;;24.80;45.80;;;;;;5068221;28;20386;-67
2021/05/15 06:18:00;;;;;;;4.95;0.85;;;26.10;42.80;;;;;;5066509;28;20038;-67
2021/05/15 06:20:26;;;;;;;2.83;0.90;;;26.70;40.20;;;;;;5067767;28;20047;-68
2021/05/15 06:22:51;;;;;;;6.43;1.40;;;26.90;38.00;;;;;;5050220;28;20810;-67
2021/05/15 06:25:17;;;;;;;6.45;0.80;;;27.20;38.80;;;;;;5068002;28;20056;-67
2021/05/15 06:27:43;;;;;;;4.15;0.70;;;27.70;38.00;;;;;;5067772;28;20035;-65
2021/05/15 06:30:10;;;;;;;2.63;1.02;;;27.20;37.70;;;;;;5067808;28;20528;-68
2021/05/15 06:32:35;;;;;;;5.30;1.20;;;26.80;39.20;;;;;;5067557;28;20025;-68
2021/05/15 06:35:01;;;;;;;2.53;0.88;;;27.20;38.60;;;;;;5067752;28;20398;-68
2021/05/15 06:37:27;;;;;;;6.72;0.95;;;27.60;38.40;;;;;;5066108;28;20037;-68
2021/05/15 06:39:52;;;;;;;4.68;0.77;;;27.20;38.00;;;;;;5067711;28;20025;-67
2021/05/15 06:42:18;;;;;;;3.38;0.68;;;26.20;38.90;;;;;;5066345;28;20233;-67
2021/05/15 06:44:44;;;;;;;4.05;0.70;;;25.20;41.10;;;;;;5067614;28;20036;-66
2021/05/15 06:47:12;;;;;;;3.72;1.00;;;24.40;42.50;;;;;;5066025;28;20037;-67
2021/05/15 06:49:38;;;;;;;2.08;0.70;;;23.70;44.90;;;;;;5067314;28;20087;-68
2021/05/15 06:52:04;;;;;;;4.93;0.95;;;23.00;47.20;;;;;;5067674;28;20559;-67
2021/05/15 06:54:30;;;;;;;1.20;0.55;;;22.60;48.80;;;;;;5067513;28;20537;-67
2021/05/15 06:56:55;;;;;;;3.00;0.70;;;22.50;48.70;;;;;;5067365;28;20036;-67
2021/05/15 06:59:21;;;;;;;5.05;0.75;;;22.90;49.00;;;;;;5067433;28;20504;-67
2021/05/15 07:01:47;;;;;;;1.40;0.60;;;23.80;47.70;;;;;;5065475;28;20024;-68
2021/05/15 07:04:13;;;;;;;1.92;0.68;;;24.40;45.30;;;;;;5066079;28;20029;-67
2021/05/15 07:06:39;;;;;;;5.28;1.33;;;24.20;44.70;;;;;;5067238;28;20035;-68
2021/05/15 07:09:05;;;;;;;1.52;0.70;;;23.50;46.40;;;;;;5066754;28;20105;-68
2021/05/15 07:11:31;;;;;;;1.60;0.77;;;23.30;45.80;;;;;;5066420;28;20227;-67
2021/05/15 07:13:56;;;;;;;3.85;0.60;;;22.80;46.90;;;;;;5067187;28;20409;-66
2021/05/15 07:16:22;;;;;;;6.00;0.85;;;22.70;48.30;;;;;;5066115;28;20041;-66
2021/05/15 07:18:48;;;;;;;7.55;1.08;;;23.30;47.90;;;;;;5065920;28;20041;-68
2021/05/15 07:21:14;;;;;;;1.25;0.60;;;23.30;46.30;;;;;;5066971;28;20504;-67
2021/05/15 07:23:40;;;;;;;2.50;0.65;;;24.10;46.40;;;;;;5066677;28;20493;-69
2021/05/15 07:26:07;;;;;;;1.83;0.60;;;24.70;43.80;;;;;;5066841;28;20074;-67
2021/05/15 07:28:34;;;;;;;8.82;0.80;;;25.00;43.10;;;;;;5064943;28;20016;-68
2021/05/15 07:31:00;;;;;;;6.65;1.05;;;25.50;44.70;;;;;;5066678;28;20031;-67
2021/05/15 07:33:25;;;;;;;7.00;1.08;;;25.80;42.80;;;;;;5066420;28;20413;-68
2021/05/15 07:35:51;;;;;;;1.65;0.60;;;26.60;41.30;;;;;;5065343;28;20020;-68
2021/05/15 07:38:18;;;;;;;7.88;0.70;;;26.50;40.30;;;;;;5066688;28;20456;-68
2021/05/15 07:40:44;;;;;;;5.38;0.88;;;25.70;40.90;;;;;;5066595;28;20032;-68
2021/05/15 07:43:10;;;;;;;5.45;0.80;;;25.10;42.30;;;;;;5066218;28;20443;-68
2021/05/15 07:45:35;;;;;;;4.65;1.17;;;24.20;44.20;;;;;;5066309;28;20052;-68
2021/05/15 07:48:01;;;;;;;1.63;0.50;;;23.60;45.80;;;;;;5066452;28;20033;-68
2021/05/15 07:50:29;;;;;;;2.25;0.77;;;22.80;45.30;;;;;;5066055;28;20500;-68
2021/05/15 07:52:55;;;;;;;1.63;0.60;;;22.30;47.10;;;;;;5066686;28;20024;-68
2021/05/15 07:55:21;;;;;;;2.65;0.82;;;22.10;47.90;;;;;;5065273;28;20037;-67
2021/05/15 07:57:47;;;;;;;9.13;0.80;;;21.60;49.40;;;;;;5066307;28;20067;-67
2021/05/15 08:00:14;;;;;;;3.10;0.80;;;21.30;52.20;;;;;;5065904;28;20405;-68
2021/05/15 08:02:40;;;;;;;3.60;1.15;;;22.20;53.60;;;;;;5066011;28;20021;-67
2021/05/15 08:05:06;;;;;;;6.25;0.85;;;23.30;52.40;;;;;;5064990;28;20040;-69
2021/05/15 08:07:32;;;;;;;4.60;0.95;;;24.20;50.30;;;;;;5066501;28;20116;-68
2021/05/15 08:09:58;;;;;;;3.97;1.00;;;24.40;47.50;;;;;;5064638;28;20372;-68
2021/05/15 08:12:23;;;;;;;6.18;1.23;;;24.40;47.30;;;;;;5065905;28;20735;-68
2021/05/15 08:14:49;;;;;;;5.18;0.93;;;24.50;47.40;;;;;;5065459;28;20031;-69
2021/05/15 08:17:15;;;;;;;8.23;0.93;;;24.40;46.70;;;;;;5065928;28;20024;-67
2021/05/15 08:19:40;;;;;;;1.80;0.70;;;24.20;47.90;;;;;;5064748;28;20036;-66
2021/05/15 08:22:06;;;;;;;3.95;0.80;;;23.90;44.50;;;;;;5064510;28;20033;-67
2021/05/15 08:24:31;;;;;;;10.52;0.98;;;23.20;47.30;;;;;;5065218;28;20496;-68
2021/05/15 08:26:58;;;;;;;6.95;1.00;;;22.40;50.20;;;;;;5065890;28;20025;-68
2021/05/15 08:29:24;;;;;;;3.53;0.88;;;21.80;52.40;;;;;;5065906;28;20358;-67
2021/05/15 08:31:50;;;;;;;3.75;0.52;;;21.90;51.70;;;;;;5065466;28;20021;-67
2021/05/15 08:34:16;;;;;;;4.95;0.80;;;22.10;52.30;;;;;;5066061;28;20385;-68
2021/05/15 08:36:42;;;;;;;3.25;1.23;;;22.10;51.60;;;;;;5065794;28;20481;-68
2021/05/15 08:39:08;;;;;;;7.28;0.93;;;21.90;52.10;;;;;;5065951;28;20059;-68
2021/05/15 08:41:34;;;;;;;2.60;0.82;;;21.50;53.60;;;;;;5066078;28;20044;-67
2021/05/15 08:44:03;;;;;;;1.52;0.80;;;21.60;55.20;;;;;;5066066;28;20079;-67
2021/05/15 08:46:30;;;;;;;7.22;1.00;;;22.00;56.30;;;;;;5064746;28;20048;-68
2021/05/15 08:49:01;;;;;;;3.88;0.88;;;22.30;54.40;;;;;;5066021;28;20040;-66
2021/05/15 08:51:27;;;;;;;2.90;0.80;;;22.30;54.40;;;;;;5066073;28;20447;-67
2021/05/15 08:53:55;;;;;;;3.67;1.23;;;22.00;53.50;;;;;;5065854;28;20227;-67
2021/05/15 08:56:21;;;;;;;2.65;1.20;;;21.80;54.80;;;;;;5065930;28;20078;-67
2021/05/15 08:58:46;;;;;;;3.05;0.80;;;21.50;55.00;;;;;;5065547;28;20435;-67
2021/05/15 09:01:14;;;;;;;2.15;0.75;;;21.10;54.80;;;;;;5065049;28;20484;-67
2021/05/15 09:03:42;;;;;;;10.10;1.67;;;20.80;55.80;;;;;;5065845;28;20504;-68
2021/05/15 09:06:08;;;;;;;2.95;1.00;;;20.70;58.10;;;;;;5065809;28;20029;-67
2021/05/15 09:08:33;;;;;;;12.95;2.10;;;20.70;59.70;;;;;;5065341;28;20119;-68
2021/05/15 09:10:59;;;;;;;1.10;0.55;;;20.60;58.90;;;;;;5065735;28;20095;-69
2021/05/15 09:13:27;;;;;;;4.38;1.00;;;20.60;58.30;;;;;;5065518;28;20033;-68
2021/05/15 09:15:57;;;;;;;2.58;0.90;;;20.60;59.80;;;;;;5063716;28;20033;-68
2021/05/15 09:18:40;;;;;;;3.22;0.90;;;20.90;59.90;;;;;;5064175;28;20531;-68
2021/05/15 09:21:16;;;;;;;5.68;0.70;;;21.70;55.20;;;;;;5065611;28;20059;-67
2021/05/15 09:23:45;;;;;;;2.55;0.98;;;21.80;54.30;;;;;;5065045;28;20071;-67
2021/05/15 09:26:15;;;;;;;2.45;0.90;;;21.90;54.10;;;;;;5064849;28;20303;-67
2021/05/15 09:28:55;;;;;;;14.65;1.20;;;21.90;54.10;;;;;;5064712;28;20060;-67
2021/05/15 09:31:23;;;;;;;3.08;1.40;;;21.70;54.20;;;;;;5063836;28;20021;-68
2021/05/15 09:33:55;;;;;;;2.85;1.00;;;21.50;56.60;;;;;;5064898;28;20036;-69
2021/05/15 09:36:34;;;;;;;5.30;1.10;;;21.40;54.90;;;;;;5068716;28;20481;-68
2021/05/15 09:39:03;;;;;;;2.78;0.93;;;22.00;53.30;;;;;;5068801;28;20045;-67
2021/05/15 09:41:35;;;;;;;6.00;0.88;;;22.70;51.00;;;;;;5069276;28;20028;-69
2021/05/15 09:44:02;;;;;;;2.65;0.75;;;22.70;49.30;;;;;;5068335;28;20040;-68
2021/05/15 09:46:31;;;;;;;4.72;0.93;;;22.20;50.60;;;;;;5068197;28;20048;-69
2021/05/15 09:48:57;;;;;;;1.67;0.60;;;21.60;54.00;;;;;;5068925;28;20039;-68
2021/05/15 09:51:23;;;;;;;3.10;0.70;;;21.40;54.40;;;;;;5067849;28;20020;-68
2021/05/15 09:53:48;;;;;;;7.70;1.15;;;21.40;55.50;;;;;;5067109;28;20111;-68
2021/05/15 09:56:26;;;;;;;1.95;0.88;;;21.40;55.80;;;;;;5068932;28;20099;-68
2021/05/15 09:58:52;;;;;;;5.90;0.80;;;21.90;55.60;;;;;;5068060;28;20102;-68
2021/05/15 10:01:18;;;;;;;1.98;0.73;;;22.30;54.40;;;;;;5068742;28;20051;-68
2021/05/15 10:03:47;;;;;;;1.73;0.90;;;22.50;52.30;;;;;;5068724;28;20024;-68
2021/05/15 10:06:15;;;;;;;2.08;0.82;;;22.30;52.40;;;;;;5068548;28;20024;-68
2021/05/15 10:08:43;;;;;;;3.33;0.82;;;22.40;53.10;;;;;;5066876;28;20559;-68
2021/05/15 10:11:09;;;;;;;5.47;0.90;;;22.40;54.10;;;;;;5068517;28;20032;-69
2021/05/15 10:13:38;;;;;;;4.35;0.60;;;22.20;51.90;;;;;;5068282;28;20036;-69
2021/05/15 10:16:05;;;;;;;3.55;0.70;;;22.40;54.10;;;;;;5068082;28;20059;-67
2021/05/15 10:18:32;;;;;;;1.58;0.90;;;22.40;51.40;;;;;;5068058;28;20028;-67
2021/05/15 10:20:58;;;;;;;4.22;1.10;;;22.20;52.10;;;;;;5067649;28;20029;-67
2021/05/15 10:23:39;;;;;;;8.38;1.02;;;21.80;53.10;;;;;;5067768;28;20048;-67
2021/05/15 10:26:24;;;;;;;1.00;0.60;;;21.70;54.40;;;;;;5067958;28;20033;-67
2021/05/15 10:29:05;;;;;;;5.72;0.60;;;21.60;54.40;;;;;;5067676;28;20028;-68
2021/05/15 10:31:46;;;;;;;4.07;0.73;;;21.90;56.20;;;;;;5067561;28;20158;-66
2021/05/15 10:34:12;;;;;;;6.13;0.80;;;22.30;55.40;;;;;;5067692;28;20039;-68
2021/05/15 10:36:48;;;;;;;1.75;0.70;;;22.60;54.40;;;;;;5066619;28;20081;-69
2021/05/15 10:39:33;;;;;;;;;;;22.70;52.30;;;;;;5068362;28;20032;-68
2021/05/15 10:42:01;;;;;;;2.05;0.70;;;22.80;53.80;;;;;;5067727;28;20478;-67
2021/05/15 10:44:41;;;;;;;6.03;0.70;;;23.00;52.00;;;;;;5067132;28;20039;-69
2021/05/15 10:47:07;;;;;;;6.85;0.90;;;23.00;50.60;;;;;;5065347;28;20590;-68
2021/05/15 10:49:33;;;;;;;2.47;0.93;;;23.10;49.80;;;;;;5067665;28;20062;-69
2021/05/15 10:52:13;;;;;;;7.22;1.13;;;23.00;50.80;;;;;;5067682;28;20032;-68
2021/05/15 10:54:47;;;;;;;4.28;0.60;;;22.60;49.60;;;;;;5067700;28;20028;-66
2021/05/15 10:57:16;;;;;;;10.23;0.98;;;22.40;49.70;;;;;;5067466;28;20125;-68
2021/05/15 10:59:54;;;;;;;4.68;1.08;;;22.20;50.00;;;;;;5066665;28;20044;-68
2021/05/15 11:02:21;;;;;;;6.13;0.70;;;22.10;52.40;;;;;;5065807;28;20044;-67
2021/05/15 11:04:54;;;;;;;3.55;0.75;;;22.20;52.40;;;;;;5067255;28;20032;-68
2021/05/15 11:07:21;;;;;;;4.82;0.65;;;22.30;51.80;;;;;;5067311;28;20027;-69
2021/05/15 11:09:54;;;;;;;2.15;0.70;;;22.50;52.80;;;;;;5065951;28;20028;-68
2021/05/15 11:12:22;;;;;;;2.97;0.88;;;22.60;51.40;;;;;;5067254;28;20211;-69
2021/05/15 11:14:49;;;;;;;1.45;0.60;;;22.80;51.50;;;;;;5067041;28;20032;-69
2021/05/15 11:17:25;;;;;;;3.55;0.70;;;22.90;49.50;;;;;;5066754;28;20852;-68
2021/05/15 11:19:51;;;;;;;7.82;1.92;;;23.00;49.30;;;;;;5066624;28;20548;-69
2021/05/15 11:22:17;;;;;;;1.85;0.70;;;23.10;48.50;;;;;;5067159;28;20036;-68
2021/05/15 11:24:51;;;;;;;5.47;1.10;;;23.20;47.90;;;;;;5066864;28;20024;-68
2021/05/15 11:27:19;;;;;;;1.23;0.60;;;23.20;50.30;;;;;;5066926;28;20077;-68
2021/05/15 11:29:45;;;;;;;4.40;0.80;;;23.20;46.90;;;;;;5066431;28;20028;-68
2021/05/15 11:32:12;;;;;;;10.82;1.00;;;23.10;47.00;;;;;;5066673;28;20028;-67
2021/05/15 11:34:38;;;;;;;3.13;0.70;;;22.90;48.30;;;;;;5066761;28;20085;-67
2021/05/15 11:37:06;;;;;;;5.25;0.98;;;22.90;49.30;;;;;;5066545;28;20397;-69
2021/05/15 11:39:32;;;;;;;1.52;0.80;;;22.90;48.90;;;;;;5066730;28;20051;-67
2021/05/15 11:42:08;;;;;;;7.22;0.77;;;22.60;49.00;;;;;;5066693;28;20795;-68
2021/05/15 11:44:36;;;;;;;4.82;0.88;;;22.30;49.90;;;;;;5065744;28;20036;-68
2021/05/15 11:47:01;;;;;;;5.72;0.70;;;22.00;50.10;;;;;;5066577;28;20059;-68
2021/05/15 11:49:28;;;;;;;2.47;0.70;;;22.00;51.90;;;;;;5066286;28;20036;-68
2021/05/15 11:52:04;;;;;;;2.10;0.80;;;21.90;50.10;;;;;;5064603;28;20561;-68
2021/05/15 11:54:31;;;;;;;2.72;0.70;;;21.80;50.30;;;;;;5066411;28;20024;-69
2021/05/15 11:56:57;;;;;;;1.52;0.60;;;21.80;50.40;;;;;;5066447;28;20025;-68
2021/05/15 11:59:24;;;;;;;0.98;0.50;;;21.80;49.30;;;;;;5065779;28;20058;-68
2021/05/15 12:01:49;;;;;;;1.77;0.60;;;21.90;50.00;;;;;;5066347;28;20094;-69
2021/05/15 12:04:33;;;;;;;3.85;0.98;;;21.90;49.20;;;;;;5066323;28;20032;-67
2021/05/15 12:07:05;;;;;;;6.82;0.90;;;22.00;47.30;;;;;;5066545;28;20032;-68
2021/05/15 12:09:31;;;;;;;1.13;0.60;;;21.80;48.70;;;;;;5064695;28;20035;-68
2021/05/15 12:12:09;;;;;;;2.47;0.52;;;22.20;50.30;;;;;;5066126;28;20059;-68
2021/05/15 12:14:38;;;;;;;1.52;0.45;;;22.30;47.50;;;;;;5065370;28;20032;-68
2021/05/15 12:17:09;;;;;;;2.50;0.70;;;22.40;47.40;;;;;;5066351;28;20512;-68
2021/05/15 12:19:35;;;;;;;0.68;0.50;;;22.40;46.60;;;;;;5065935;28;20040;-68
2021/05/15 12:22:07;;;;;;;5.07;0.60;;;22.40;47.70;;;;;;5066215;28;20085;-68
2021/05/15 12:24:33;;;;;;;1.73;0.60;;;22.50;46.50;;;;;;5066153;28;20104;-69
2021/05/15 12:27:08;;;;;;;1.75;0.60;;;22.40;47.30;;;;;;5066436;28;20100;-68
2021/05/15 12:29:34;;;;;;;2.83;0.70;;;22.50;46.30;;;;;;5064651;28;20024;-67
2021/05/15 12:32:00;;;;;;;2.67;0.80;;;22.20;46.80;;;;;;5065881;28;20025;-68
2021/05/15 12:34:25;;;;;;;2.13;0.60;;;21.80;48.10;;;;;;5065775;28;20033;-68
2021/05/15 12:36:51;;;;;;;2.03;0.80;;;21.50;49.40;;;;;;5065702;28;20039;-68
2021/05/15 12:39:17;;;;;;;2.35;0.75;;;21.30;50.90;;;;;;5065773;28;20417;-69
2021/05/15 12:41:44;;;;;;;1.77;0.60;;;21.30;52.20;;;;;;5064732;28;20021;-68
2021/05/15 12:44:12;;;;;;;2.20;0.70;;;21.40;52.60;;;;;;5065593;28;20020;-67
2021/05/15 12:46:40;;;;;;;7.63;0.70;;;21.50;51.20;;;;;;5065905;28;20076;-68
2021/05/15 12:49:33;;;;;;;2.05;0.50;;;21.50;50.40;;;;;;5065985;28;20508;-68
2021/05/15 12:51:59;;;;;;;1.60;0.50;;;21.60;49.50;;;;;;5066137;28;20031;-67
2021/05/15 12:54:28;;;;;;;2.65;0.60;;;21.70;50.70;;;;;;5065592;28;20020;-69
2021/05/15 12:56:57;;;;;;;1.38;0.50;;;21.60;49.70;;;;;;5065719;28;20032;-68
2021/05/15 12:59:40;;;;;;;2.72;0.60;;;21.60;48.90;;;;;;5065602;28;20047;-68
2021/05/15 13:02:26;;;;;;;1.20;0.50;;;21.50;49.30;;;;;;5064651;28;20085;-68
2021/05/15 13:04:57;;;;;;;2.70;0.60;;;21.40;49.00;;;;;;5065468;28;20516;-68